PWSweather.com
Personal Weather Stations
Station Observations
KCASARAT2
Saratoga, Saratoga, CA 95070

SaratogaSaratoga, CA 95070

Lat: 37.2625, Lon: -122.0033

Elevation: 370

Station Type: Davis Vantage Pro 2

Latest ConditionsUpdated 5:31:01 AM PST Friday, Feb 22, 2019
Currently Today's Max Today's Min Today's Average
Temperature 35.8°F2.1°C 44.6°F7.0°C 35.8°F2.1°C 40.1°F4.5°C
Dew Point 25.5°F-3.6°C 27.0°F-2.8°C 25.2°F-3.8°C 26.1°F-3.3°C
Winds 1.1 mph WSW1.8 kmh WSW 4.0 mph -6.4 kmh - - 1.8 mph 2.9 kmh
Wind Gusts 2.0 mph3.2 kmh 6.3 mph10.1 kmh - -
Humidity 66% 67% 48% 57%
Pressure 30.02 in1016.6 mb 30.03 in1016.9 mb 29.93 in1013.5 mb -
Precipitation - 0.01 in0.3 mm - -
Hour Temp Dew Point Humidity Winds Wind Gusts Pressure Precip Precip Rate Daily Precip Total
05:31 AM 35.8°F2.1°C 25.5°F-3.6°C 66% 1.1 mph WSW1.8 kmh WSW 2.0 mph3.2 kmh 30.02 in1016.6 mb 0.01 in0.3 mm 0.00 in0.0 mm 0.01 in0.3 mm
05:30 AM 35.8°F2.1°C 25.9°F-3.4°C 67% 0.9 mph WSW1.4 kmh WSW 1.1 mph1.8 kmh 30.02 in1016.6 mb 0.01 in0.3 mm 0.00 in0.0 mm 0.01 in0.3 mm
05:29 AM 35.8°F2.1°C 25.9°F-3.4°C 67% 0.9 mph WSW1.4 kmh WSW 2.0 mph3.2 kmh 30.02 in1016.6 mb 0.01 in0.3 mm 0.00 in0.0 mm 0.01 in0.3 mm
05:28 AM 35.8°F2.1°C 25.9°F-3.4°C 67% 0.9 mph WSW1.4 kmh WSW 2.0 mph3.2 kmh 30.02 in1016.6 mb 0.01 in0.3 mm 0.60 in15.2 mm 0.01 in0.3 mm
05:27 AM 35.8°F2.1°C 25.9°F-3.4°C 67% 1.1 mph WSW1.8 kmh WSW 2.0 mph3.2 kmh 30.02 in1016.6 mb 0.00 in0.0 mm 0.00 in0.0 mm 0.00 in0.0 mm
05:26 AM 35.8°F2.1°C 25.9°F-3.4°C 67% 1.3 mph WSW2.1 kmh WSW 3.1 mph5.0 kmh 30.02 in1016.6 mb 0.00 in0.0 mm 0.00 in0.0 mm 0.00 in0.0 mm
05:25 AM 35.8°F2.1°C 25.9°F-3.4°C 67% 1.1 mph W1.8 kmh W 2.0 mph3.2 kmh 30.02 in1016.6 mb 0.00 in0.0 mm 0.00 in0.0 mm 0.00 in0.0 mm
05:24 AM 35.8°F2.1°C 25.9°F-3.4°C 67% 1.6 mph W2.6 kmh W 2.0 mph3.2 kmh 30.02 in1016.6 mb 0.00 in0.0 mm 0.00 in0.0 mm 0.00 in0.0 mm
05:23 AM 35.8°F2.1°C 25.5°F-3.6°C 66% 1.6 mph W2.6 kmh W 3.1 mph5.0 kmh 30.02 in1016.6 mb 0.00 in0.0 mm 0.00 in0.0 mm 0.00 in0.0 mm
05:22 AM 36.0°F2.2°C 25.7°F-3.5°C 66% 1.3 mph W2.1 kmh W 2.0 mph3.2 kmh 30.02 in1016.6 mb 0.00 in0.0 mm 0.00 in0.0 mm 0.00 in0.0 mm
05:21 AM 36.0°F2.2°C 25.7°F-3.5°C 66% 1.6 mph W2.6 kmh W 2.0 mph3.2 kmh 30.02 in1016.6 mb 0.00 in0.0 mm 0.00 in0.0 mm 0.00 in0.0 mm
05:20 AM 36.1°F2.3°C 25.5°F-3.6°C 65% 1.6 mph W2.6 kmh W 3.1 mph5.0 kmh 30.02 in1016.6 mb 0.00 in0.0 mm 0.00 in0.0 mm 0.00 in0.0 mm
05:19 AM 36.1°F2.3°C 25.5°F-3.6°C 65% 1.3 mph W2.1 kmh W 2.0 mph3.2 kmh 30.02 in1016.6 mb 0.00 in0.0 mm 0.00 in0.0 mm 0.00 in0.0 mm
05:18 AM 36.3°F2.4°C 25.7°F-3.5°C 65% 1.1 mph W1.8 kmh W 2.0 mph3.2 kmh 30.02 in1016.6 mb 0.00 in0.0 mm 0.00 in0.0 mm 0.00 in0.0 mm
05:17 AM 36.5°F2.5°C 25.9°F-3.4°C 65% 0.9 mph W1.4 kmh W 1.1 mph1.8 kmh 30.02 in1016.6 mb 0.00 in0.0 mm 0.00 in0.0 mm 0.00 in0.0 mm
05:16 AM 36.5°F2.5°C 25.9°F-3.4°C 65% 1.6 mph W2.6 kmh W 1.1 mph1.8 kmh 30.02 in1016.6 mb 0.00 in0.0 mm 0.00 in0.0 mm 0.00 in0.0 mm
05:15 AM 36.5°F2.5°C 25.9°F-3.4°C 65% 2.0 mph W3.2 kmh W 3.1 mph5.0 kmh 30.02 in1016.6 mb 0.00 in0.0 mm 0.00 in0.0 mm 0.00 in0.0 mm
05:14 AM 36.7°F2.6°C 26.1°F-3.3°C 65% 2.2 mph W3.5 kmh W 3.1 mph5.0 kmh 30.03 in1016.9 mb 0.00 in0.0 mm 0.00 in0.0 mm 0.00 in0.0 mm
05:13 AM 36.7°F2.6°C 26.1°F-3.3°C 65% 2.2 mph W3.5 kmh W 3.1 mph5.0 kmh 30.02 in1016.6 mb 0.00 in0.0 mm 0.00 in0.0 mm 0.00 in0.0 mm
05:12 AM 36.7°F2.6°C 25.7°F-3.5°C 64% 2.5 mph W4.0 kmh W 3.1 mph5.0 kmh 30.02 in1016.6 mb 0.00 in0.0 mm 0.00 in0.0 mm 0.00 in0.0 mm
05:11 AM 36.7°F2.6°C 25.7°F-3.5°C 64% 2.5 mph WSW4.0 kmh WSW 4.3 mph6.9 kmh 30.02 in1016.6 mb 0.00 in0.0 mm 0.00 in0.0 mm 0.00 in0.0 mm
05:10 AM 36.7°F2.6°C 25.7°F-3.5°C 64% 3.1 mph WSW5.0 kmh WSW 5.4 mph8.7 kmh 30.02 in1016.6 mb 0.00 in0.0 mm 0.00 in0.0 mm 0.00 in0.0 mm
05:09 AM 36.7°F2.6°C 25.7°F-3.5°C 64% 3.1 mph W5.0 kmh W 5.4 mph8.7 kmh 30.03 in1016.9 mb 0.00 in0.0 mm 0.00 in0.0 mm 0.00 in0.0 mm
05:08 AM 36.9°F2.7°C 25.9°F-3.4°C 64% 2.5 mph WSW4.0 kmh WSW 4.3 mph6.9 kmh 30.02 in1016.6 mb 0.00 in0.0 mm 0.00 in0.0 mm 0.00 in0.0 mm
05:07 AM 36.9°F2.7°C 25.9°F-3.4°C 64% 2.9 mph WSW4.7 kmh WSW 3.1 mph5.0 kmh 30.02 in1016.6 mb 0.00 in0.0 mm 0.00 in0.0 mm 0.00 in0.0 mm
05:06 AM 36.9°F2.7°C 25.5°F-3.6°C 63% 2.9 mph WSW4.7 kmh WSW 5.4 mph8.7 kmh 30.02 in1016.6 mb 0.00 in0.0 mm 0.00 in0.0 mm 0.00 in0.0 mm
05:05 AM 37.0°F2.8°C 25.7°F-3.5°C 63% 2.2 mph WSW3.5 kmh WSW 5.4 mph8.7 kmh 30.02 in1016.6 mb 0.00 in0.0 mm 0.00 in0.0 mm 0.00 in0.0 mm
05:04 AM 37.0°F2.8°C 25.7°F-3.5°C 63% 1.8 mph W2.9 kmh W 2.0 mph3.2 kmh 30.02 in1016.6 mb 0.00 in0.0 mm 0.00 in0.0 mm 0.00 in0.0 mm
05:03 AM 37.2°F2.9°C 25.3°F-3.7°C 62% 2.0 mph W3.2 kmh W 4.3 mph6.9 kmh 30.02 in1016.6 mb 0.00 in0.0 mm 0.00 in0.0 mm 0.00 in0.0 mm
05:02 AM 37.6°F3.1°C 25.3°F-3.7°C 61% 1.1 mph WSW1.8 kmh WSW 2.0 mph3.2 kmh 30.02 in1016.6 mb 0.00 in0.0 mm 0.00 in0.0 mm 0.00 in0.0 mm
05:01 AM 37.6°F3.1°C 25.3°F-3.7°C 61% 0.7 mph SW1.1 kmh SW 1.1 mph1.8 kmh 30.02 in1016.6 mb 0.00 in0.0 mm 0.00 in0.0 mm 0.00 in0.0 mm
05:00 AM 37.8°F3.2°C 25.5°F-3.6°C 61% 0.4 mph SW0.6 kmh SW 1.1 mph1.8 kmh 30.02 in1016.6 mb 0.00 in0.0 mm 0.00 in0.0 mm 0.00 in0.0 mm
04:59 AM 37.8°F3.2°C 25.5°F-3.6°C 61% 0.2 mph SW0.3 kmh SW 1.1 mph1.8 kmh 30.02 in1016.6 mb 0.00 in0.0 mm 0.00 in0.0 mm 0.00 in0.0 mm
04:58 AM 37.8°F3.2°C 25.5°F-3.6°C 61% 1.3 mph SW2.1 kmh SW 2.0 mph3.2 kmh 30.02 in1016.6 mb 0.00 in0.0 mm 0.00 in0.0 mm 0.00 in0.0 mm
04:57 AM 37.8°F3.2°C 26.2°F-3.2°C 63% 1.3 mph SW2.1 kmh SW 3.1 mph5.0 kmh 30.02 in1016.6 mb 0.00 in0.0 mm 0.00 in0.0 mm 0.00 in0.0 mm
04:56 AM 37.6°F3.1°C 26.1°F-3.3°C 63% 0.9 mph WSW1.4 kmh WSW 2.0 mph3.2 kmh 30.02 in1016.6 mb 0.00 in0.0 mm 0.00 in0.0 mm 0.00 in0.0 mm
04:55 AM 37.2°F2.9°C 25.7°F-3.5°C 63% 1.8 mph WSW2.9 kmh WSW 2.0 mph3.2 kmh 30.02 in1016.6 mb 0.00 in0.0 mm 0.00 in0.0 mm 0.00 in0.0 mm
04:54 AM 37.2°F2.9°C 25.7°F-3.5°C 63% 2.0 mph WSW3.2 kmh WSW 4.3 mph6.9 kmh 30.02 in1016.6 mb 0.00 in0.0 mm 0.00 in0.0 mm 0.00 in0.0 mm
04:53 AM 37.2°F2.9°C 25.7°F-3.5°C 63% 1.8 mph W2.9 kmh W 3.1 mph5.0 kmh 30.02 in1016.6 mb 0.00 in0.0 mm 0.00 in0.0 mm 0.00 in0.0 mm
04:52 AM 37.2°F2.9°C 25.7°F-3.5°C 63% 2.0 mph WSW3.2 kmh WSW 3.1 mph5.0 kmh 30.02 in1016.6 mb 0.00 in0.0 mm 0.00 in0.0 mm 0.00 in0.0 mm
04:51 AM 37.2°F2.9°C 25.7°F-3.5°C 63% 2.5 mph W4.0 kmh W 3.1 mph5.0 kmh 30.02 in1016.6 mb 0.00 in0.0 mm 0.00 in0.0 mm 0.00 in0.0 mm
04:50 AM 37.2°F2.9°C 25.7°F-3.5°C 63% 2.9 mph W4.7 kmh W 4.3 mph6.9 kmh 30.02 in1016.6 mb 0.00 in0.0 mm 0.00 in0.0 mm 0.00 in0.0 mm
04:49 AM 37.2°F2.9°C 25.7°F-3.5°C 63% 2.7 mph W4.3 kmh W 4.3 mph6.9 kmh 30.02 in1016.6 mb 0.00 in0.0 mm 0.00 in0.0 mm 0.00 in0.0 mm
04:48 AM 37.0°F2.8°C 26.1°F-3.3°C 64% 2.0 mph WSW3.2 kmh WSW 3.1 mph5.0 kmh 30.02 in1016.6 mb 0.00 in0.0 mm 0.00 in0.0 mm 0.00 in0.0 mm
04:47 AM 37.0°F2.8°C 26.1°F-3.3°C 64% 2.2 mph WSW3.5 kmh WSW 3.1 mph5.0 kmh 30.02 in1016.6 mb 0.00 in0.0 mm 0.00 in0.0 mm 0.00 in0.0 mm
04:46 AM 37.0°F2.8°C 26.1°F-3.3°C 64% 2.5 mph WSW4.0 kmh WSW 3.1 mph5.0 kmh 30.02 in1016.6 mb 0.00 in0.0 mm 0.00 in0.0 mm 0.00 in0.0 mm
04:45 AM 36.9°F2.7°C 26.2°F-3.2°C 65% 2.5 mph WSW4.0 kmh WSW 3.1 mph5.0 kmh 30.02 in1016.6 mb 0.00 in0.0 mm 0.00 in0.0 mm 0.00 in0.0 mm
04:44 AM 36.9°F2.7°C 26.2°F-3.2°C 65% 2.5 mph W4.0 kmh W 4.3 mph6.9 kmh 30.02 in1016.6 mb 0.00 in0.0 mm 0.00 in0.0 mm 0.00 in0.0 mm
04:43 AM 36.7°F2.6°C 26.1°F-3.3°C 65% 3.4 mph W5.5 kmh W 5.4 mph8.7 kmh 30.01 in1016.3 mb 0.00 in0.0 mm 0.00 in0.0 mm 0.00 in0.0 mm
04:42 AM 36.7°F2.6°C 26.1°F-3.3°C 65% 3.8 mph W6.1 kmh W 6.3 mph10.1 kmh 30.01 in1016.3 mb 0.00 in0.0 mm 0.00 in0.0 mm 0.00 in0.0 mm
04:41 AM 36.7°F2.6°C 26.1°F-3.3°C 65% 3.4 mph WSW5.5 kmh WSW 5.4 mph8.7 kmh 30.01 in1016.3 mb 0.00 in0.0 mm 0.00 in0.0 mm 0.00 in0.0 mm
04:40 AM 36.7°F2.6°C 26.4°F-3.1°C 66% 3.4 mph W5.5 kmh W 5.4 mph8.7 kmh 30.01 in1016.3 mb 0.00 in0.0 mm 0.00 in0.0 mm 0.00 in0.0 mm
04:39 AM 36.5°F2.5°C 25.9°F-3.4°C 65% 3.1 mph WSW5.0 kmh WSW 4.3 mph6.9 kmh 30.01 in1016.3 mb 0.00 in0.0 mm 0.00 in0.0 mm 0.00 in0.0 mm
04:38 AM 36.5°F2.5°C 25.9°F-3.4°C 65% 2.7 mph WSW4.3 kmh WSW 4.3 mph6.9 kmh 30.01 in1016.3 mb 0.00 in0.0 mm 0.00 in0.0 mm 0.00 in0.0 mm
04:37 AM 36.5°F2.5°C 25.9°F-3.4°C 65% 2.5 mph WSW4.0 kmh WSW 4.3 mph6.9 kmh 30.01 in1016.3 mb 0.00 in0.0 mm 0.00 in0.0 mm 0.00 in0.0 mm
04:36 AM 36.7°F2.6°C 26.1°F-3.3°C 65% 2.7 mph W4.3 kmh W 3.1 mph5.0 kmh 30.01 in1016.3 mb 0.00 in0.0 mm 0.00 in0.0 mm 0.00 in0.0 mm
04:35 AM 36.5°F2.5°C 25.9°F-3.4°C 65% 3.1 mph W5.0 kmh W 4.3 mph6.9 kmh 30.01 in1016.3 mb 0.00 in0.0 mm 0.00 in0.0 mm 0.00 in0.0 mm
04:34 AM 36.5°F2.5°C 25.9°F-3.4°C 65% 2.7 mph WSW4.3 kmh WSW 5.4 mph8.7 kmh 30.01 in1016.3 mb 0.00 in0.0 mm 0.00 in0.0 mm 0.00 in0.0 mm
04:33 AM 36.7°F2.6°C 26.1°F-3.3°C 65% 2.2 mph W3.5 kmh W 4.3 mph6.9 kmh 30.01 in1016.3 mb 0.00 in0.0 mm 0.00 in0.0 mm 0.00 in0.0 mm
04:32 AM 36.7°F2.6°C 26.1°F-3.3°C 65% 2.0 mph WSW3.2 kmh WSW 3.1 mph5.0 kmh 30.01 in1016.3 mb 0.00 in0.0 mm 0.00 in0.0 mm 0.00 in0.0 mm
04:31 AM 36.7°F2.6°C 26.1°F-3.3°C 65% 2.0 mph WSW3.2 kmh WSW 2.0 mph3.2 kmh 30.01 in1016.3 mb 0.00 in0.0 mm 0.00 in0.0 mm 0.00 in0.0 mm
04:30 AM 36.9°F2.7°C 26.2°F-3.2°C 65% 2.0 mph WSW3.2 kmh WSW 3.1 mph5.0 kmh 30.01 in1016.3 mb 0.00 in0.0 mm 0.00 in0.0 mm 0.00 in0.0 mm
04:29 AM 36.9°F2.7°C 26.2°F-3.2°C 65% 1.8 mph WSW2.9 kmh WSW 3.1 mph5.0 kmh 30.01 in1016.3 mb 0.00 in0.0 mm 0.00 in0.0 mm 0.00 in0.0 mm
04:28 AM 36.9°F2.7°C 26.2°F-3.2°C 65% 2.0 mph WSW3.2 kmh WSW 3.1 mph5.0 kmh 30.01 in1016.3 mb 0.00 in0.0 mm 0.00 in0.0 mm 0.00 in0.0 mm
04:27 AM 36.9°F2.7°C 25.9°F-3.4°C 64% 1.8 mph WSW2.9 kmh WSW 3.1 mph5.0 kmh 30.01 in1016.3 mb 0.00 in0.0 mm 0.00 in0.0 mm 0.00 in0.0 mm
04:25 AM 36.9°F2.7°C 25.9°F-3.4°C 64% 1.3 mph WSW2.1 kmh WSW 2.0 mph3.2 kmh 30.01 in1016.3 mb 0.00 in0.0 mm 0.00 in0.0 mm 0.00 in0.0 mm
04:24 AM 37.0°F2.8°C 26.1°F-3.3°C 64% 0.7 mph WSW1.1 kmh WSW 2.0 mph3.2 kmh 30.01 in1016.3 mb 0.00 in0.0 mm 0.00 in0.0 mm 0.00 in0.0 mm
04:23 AM 37.0°F2.8°C 25.7°F-3.5°C 63% 0.4 mph WSW0.6 kmh WSW 1.1 mph1.8 kmh 30.01 in1016.3 mb 0.00 in0.0 mm 0.00 in0.0 mm 0.00 in0.0 mm
04:22 AM 37.2°F2.9°C 25.7°F-3.5°C 63% 1.1 mph WSW1.8 kmh WSW 2.0 mph3.2 kmh 30.01 in1016.3 mb 0.00 in0.0 mm 0.00 in0.0 mm 0.00 in0.0 mm
04:21 AM 37.2°F2.9°C 25.7°F-3.5°C 63% 1.6 mph WSW2.6 kmh WSW 2.0 mph3.2 kmh 30.01 in1016.3 mb 0.00 in0.0 mm 0.00 in0.0 mm 0.00 in0.0 mm
04:20 AM 37.2°F2.9°C 25.7°F-3.5°C 63% 1.6 mph WSW2.6 kmh WSW 2.0 mph3.2 kmh 30.01 in1016.3 mb 0.00 in0.0 mm 0.00 in0.0 mm 0.00 in0.0 mm
04:19 AM 37.2°F2.9°C 25.7°F-3.5°C 63% 1.6 mph WSW2.6 kmh WSW 2.0 mph3.2 kmh 30.01 in1016.3 mb 0.00 in0.0 mm 0.00 in0.0 mm 0.00 in0.0 mm
04:18 AM 37.2°F2.9°C 25.7°F-3.5°C 63% 2.0 mph WSW3.2 kmh WSW 3.1 mph5.0 kmh 30.01 in1016.3 mb 0.00 in0.0 mm 0.00 in0.0 mm 0.00 in0.0 mm
04:17 AM 37.2°F2.9°C 25.7°F-3.5°C 63% 2.5 mph WSW4.0 kmh WSW 3.1 mph5.0 kmh 30.01 in1016.3 mb 0.00 in0.0 mm 0.00 in0.0 mm 0.00 in0.0 mm
04:16 AM 37.2°F2.9°C 25.7°F-3.5°C 63% 2.7 mph W4.3 kmh W 4.3 mph6.9 kmh 30.01 in1016.3 mb 0.00 in0.0 mm 0.00 in0.0 mm 0.00 in0.0 mm
04:15 AM 37.2°F2.9°C 25.7°F-3.5°C 63% 3.1 mph WSW5.0 kmh WSW 4.3 mph6.9 kmh 30.01 in1016.3 mb 0.00 in0.0 mm 0.00 in0.0 mm 0.00 in0.0 mm
04:14 AM 37.2°F2.9°C 25.7°F-3.5°C 63% 2.9 mph W4.7 kmh W 4.3 mph6.9 kmh 30.01 in1016.3 mb 0.00 in0.0 mm 0.00 in0.0 mm 0.00 in0.0 mm
04:13 AM 37.2°F2.9°C 25.7°F-3.5°C 63% 2.7 mph WSW4.3 kmh WSW 4.3 mph6.9 kmh 30.01 in1016.3 mb 0.00 in0.0 mm 0.00 in0.0 mm 0.00 in0.0 mm
04:12 AM 37.4°F3.0°C 25.9°F-3.4°C 63% 1.6 mph WSW2.6 kmh WSW 3.1 mph5.0 kmh 30.01 in1016.3 mb 0.00 in0.0 mm 0.00 in0.0 mm 0.00 in0.0 mm
04:11 AM 37.6°F3.1°C 26.1°F-3.3°C 63% 0.9 mph WSW1.4 kmh WSW 3.1 mph5.0 kmh 30.01 in1016.3 mb 0.00 in0.0 mm 0.00 in0.0 mm 0.00 in0.0 mm
04:10 AM 37.8°F3.2°C 25.9°F-3.4°C 62% 1.1 mph WSW1.8 kmh WSW 2.0 mph3.2 kmh 30.00 in1015.9 mb 0.00 in0.0 mm 0.00 in0.0 mm 0.00 in0.0 mm
04:09 AM 37.8°F3.2°C 25.9°F-3.4°C 62% 1.3 mph WSW2.1 kmh WSW 2.0 mph3.2 kmh 30.00 in1015.9 mb 0.00 in0.0 mm 0.00 in0.0 mm 0.00 in0.0 mm
04:08 AM 37.8°F3.2°C 25.9°F-3.4°C 62% 1.3 mph WSW2.1 kmh WSW 2.0 mph3.2 kmh 30.00 in1015.9 mb 0.00 in0.0 mm 0.00 in0.0 mm 0.00 in0.0 mm
04:07 AM 37.8°F3.2°C 25.9°F-3.4°C 62% 2.0 mph WSW3.2 kmh WSW -- 30.00 in1015.9 mb 0.00 in0.0 mm 0.00 in0.0 mm 0.00 in0.0 mm
04:06 AM 37.8°F3.2°C 25.9°F-3.4°C 62% 2.0 mph WSW3.2 kmh WSW 3.1 mph5.0 kmh 30.00 in1015.9 mb 0.00 in0.0 mm 0.00 in0.0 mm 0.00 in0.0 mm
04:05 AM 37.9°F3.3°C 26.1°F-3.3°C 62% 2.2 mph WSW3.5 kmh WSW 3.1 mph5.0 kmh 30.00 in1015.9 mb 0.00 in0.0 mm 0.00 in0.0 mm 0.00 in0.0 mm
04:04 AM 37.9°F3.3°C 26.1°F-3.3°C 62% 2.0 mph WSW3.2 kmh WSW 3.1 mph5.0 kmh 30.00 in1015.9 mb 0.00 in0.0 mm 0.00 in0.0 mm 0.00 in0.0 mm
04:03 AM 37.9°F3.3°C 26.1°F-3.3°C 62% 2.0 mph WSW3.2 kmh WSW 3.1 mph5.0 kmh 30.00 in1015.9 mb 0.00 in0.0 mm 0.00 in0.0 mm 0.00 in0.0 mm
04:02 AM 37.9°F3.3°C 26.1°F-3.3°C 62% 2.0 mph WSW3.2 kmh WSW 3.1 mph5.0 kmh 30.00 in1015.9 mb 0.00 in0.0 mm 0.00 in0.0 mm 0.00 in0.0 mm
04:01 AM 38.1°F3.4°C 25.9°F-3.4°C 61% 2.0 mph W3.2 kmh W 3.1 mph5.0 kmh 30.00 in1015.9 mb 0.00 in0.0 mm 0.00 in0.0 mm 0.00 in0.0 mm
04:00 AM 38.1°F3.4°C 25.9°F-3.4°C 61% 2.5 mph WSW4.0 kmh WSW 4.3 mph6.9 kmh 30.00 in1015.9 mb 0.00 in0.0 mm 0.00 in0.0 mm 0.00 in0.0 mm
03:59 AM 38.5°F3.6°C 25.9°F-3.4°C 60% 2.7 mph WSW4.3 kmh WSW 4.3 mph6.9 kmh 30.00 in1015.9 mb 0.00 in0.0 mm 0.00 in0.0 mm 0.00 in0.0 mm
03:58 AM 38.5°F3.6°C 25.9°F-3.4°C 60% 2.2 mph WSW3.5 kmh WSW 4.3 mph6.9 kmh 30.00 in1015.9 mb 0.00 in0.0 mm 0.00 in0.0 mm 0.00 in0.0 mm
03:57 AM 38.5°F3.6°C 25.9°F-3.4°C 60% 2.9 mph W4.7 kmh W 4.3 mph6.9 kmh 30.00 in1015.9 mb 0.00 in0.0 mm 0.00 in0.0 mm 0.00 in0.0 mm
03:56 AM 38.7°F3.7°C 25.5°F-3.6°C 59% 2.5 mph WSW4.0 kmh WSW 4.3 mph6.9 kmh 30.00 in1015.9 mb 0.00 in0.0 mm 0.00 in0.0 mm 0.00 in0.0 mm
03:55 AM 38.8°F3.8°C 25.3°F-3.7°C 58% 0.4 mph WSW0.6 kmh WSW 4.3 mph6.9 kmh 29.99 in1015.6 mb 0.00 in0.0 mm 0.00 in0.0 mm 0.00 in0.0 mm
03:54 AM 39.0°F3.9°C 25.5°F-3.6°C 58% 0.4 mph SW0.6 kmh SW 1.1 mph1.8 kmh 30.00 in1015.9 mb 0.00 in0.0 mm 0.00 in0.0 mm 0.00 in0.0 mm
03:53 AM 39.0°F3.9°C 25.5°F-3.6°C 58% 0.9 mph SW1.4 kmh SW 2.0 mph3.2 kmh 30.00 in1015.9 mb 0.00 in0.0 mm 0.00 in0.0 mm 0.00 in0.0 mm
03:52 AM 39.4°F4.1°C 25.3°F-3.7°C 57% 0.9 mph SW1.4 kmh SW 2.0 mph3.2 kmh 29.99 in1015.6 mb 0.00 in0.0 mm 0.00 in0.0 mm 0.00 in0.0 mm
03:51 AM 39.4°F4.1°C 25.3°F-3.7°C 57% 1.1 mph WSW1.8 kmh WSW 1.1 mph1.8 kmh 30.00 in1015.9 mb 0.00 in0.0 mm 0.00 in0.0 mm 0.00 in0.0 mm
03:50 AM 39.6°F4.2°C 25.5°F-3.6°C 57% 1.8 mph WSW2.9 kmh WSW 3.1 mph5.0 kmh 30.00 in1015.9 mb 0.00 in0.0 mm 0.00 in0.0 mm 0.00 in0.0 mm
03:49 AM 39.6°F4.2°C 25.5°F-3.6°C 57% 1.8 mph WSW2.9 kmh WSW 3.1 mph5.0 kmh 30.00 in1015.9 mb 0.00 in0.0 mm 0.00 in0.0 mm 0.00 in0.0 mm
03:48 AM 39.6°F4.2°C 25.2°F-3.8°C 56% 1.6 mph WSW2.6 kmh WSW 2.0 mph3.2 kmh 29.99 in1015.6 mb 0.00 in0.0 mm 0.00 in0.0 mm 0.00 in0.0 mm
03:47 AM 39.6°F4.2°C 25.5°F-3.6°C 57% 1.8 mph WSW2.9 kmh WSW 3.1 mph5.0 kmh 29.99 in1015.6 mb 0.00 in0.0 mm 0.00 in0.0 mm 0.00 in0.0 mm
03:46 AM 39.6°F4.2°C 25.5°F-3.6°C 57% 1.6 mph WSW2.6 kmh WSW 2.0 mph3.2 kmh 29.99 in1015.6 mb 0.00 in0.0 mm 0.00 in0.0 mm 0.00 in0.0 mm
03:45 AM 39.6°F4.2°C 25.5°F-3.6°C 57% 1.6 mph W2.6 kmh W 3.1 mph5.0 kmh 29.99 in1015.6 mb 0.00 in0.0 mm 0.00 in0.0 mm 0.00 in0.0 mm
03:44 AM 39.6°F4.2°C 25.5°F-3.6°C 57% 1.8 mph W2.9 kmh W 3.1 mph5.0 kmh 29.99 in1015.6 mb 0.00 in0.0 mm 0.00 in0.0 mm 0.00 in0.0 mm
03:43 AM 39.6°F4.2°C 25.5°F-3.6°C 57% 1.6 mph W2.6 kmh W 2.0 mph3.2 kmh 29.99 in1015.6 mb 0.00 in0.0 mm 0.00 in0.0 mm 0.00 in0.0 mm
03:42 AM 39.6°F4.2°C 25.5°F-3.6°C 57% 1.3 mph NW2.1 kmh NW 2.0 mph3.2 kmh 29.99 in1015.6 mb 0.00 in0.0 mm 0.00 in0.0 mm 0.00 in0.0 mm
03:41 AM 39.6°F4.2°C 25.5°F-3.6°C 57% 1.3 mph NW2.1 kmh NW 2.0 mph3.2 kmh 29.99 in1015.6 mb 0.00 in0.0 mm 0.00 in0.0 mm 0.00 in0.0 mm
03:40 AM 39.6°F4.2°C 25.5°F-3.6°C 57% 1.3 mph NW2.1 kmh NW 2.0 mph3.2 kmh 29.99 in1015.6 mb 0.00 in0.0 mm 0.00 in0.0 mm 0.00 in0.0 mm
03:39 AM 39.7°F4.3°C 25.7°F-3.5°C 57% 1.3 mph NW2.1 kmh NW 2.0 mph3.2 kmh 29.99 in1015.6 mb 0.00 in0.0 mm 0.00 in0.0 mm 0.00 in0.0 mm
03:38 AM 39.7°F4.3°C 25.7°F-3.5°C 57% 1.8 mph W2.9 kmh W 3.1 mph5.0 kmh 29.99 in1015.6 mb 0.00 in0.0 mm 0.00 in0.0 mm 0.00 in0.0 mm
03:37 AM 39.7°F4.3°C 25.7°F-3.5°C 57% 2.7 mph W4.3 kmh W 4.3 mph6.9 kmh 29.99 in1015.6 mb 0.00 in0.0 mm 0.00 in0.0 mm 0.00 in0.0 mm
03:36 AM 39.7°F4.3°C 25.7°F-3.5°C 57% 2.5 mph W4.0 kmh W 4.3 mph6.9 kmh 29.99 in1015.6 mb 0.00 in0.0 mm 0.00 in0.0 mm 0.00 in0.0 mm
03:35 AM 39.6°F4.2°C 26.1°F-3.3°C 58% 2.7 mph WSW4.3 kmh WSW 4.3 mph6.9 kmh 29.99 in1015.6 mb 0.00 in0.0 mm 0.00 in0.0 mm 0.00 in0.0 mm
03:34 AM 39.6°F4.2°C 26.1°F-3.3°C 58% 2.7 mph W4.3 kmh W 4.3 mph6.9 kmh 29.99 in1015.6 mb 0.00 in0.0 mm 0.00 in0.0 mm 0.00 in0.0 mm
03:33 AM 39.4°F4.1°C 25.9°F-3.4°C 58% 2.9 mph W4.7 kmh W 5.4 mph8.7 kmh 29.99 in1015.6 mb 0.00 in0.0 mm 0.00 in0.0 mm 0.00 in0.0 mm
03:32 AM 39.2°F4.0°C 26.1°F-3.3°C 59% 4.0 mph W6.4 kmh W 5.4 mph8.7 kmh 29.99 in1015.6 mb 0.00 in0.0 mm 0.00 in0.0 mm 0.00 in0.0 mm
03:31 AM 39.0°F3.9°C 25.9°F-3.4°C 59% 3.1 mph WSW5.0 kmh WSW 6.3 mph10.1 kmh 29.99 in1015.6 mb 0.00 in0.0 mm 0.00 in0.0 mm 0.00 in0.0 mm
03:30 AM 39.0°F3.9°C 26.2°F-3.2°C 60% 2.0 mph W3.2 kmh W 3.1 mph5.0 kmh 29.99 in1015.6 mb 0.00 in0.0 mm 0.00 in0.0 mm 0.00 in0.0 mm
03:29 AM 38.8°F3.8°C 26.1°F-3.3°C 60% 2.2 mph W3.5 kmh W 4.3 mph6.9 kmh 29.98 in1015.2 mb 0.00 in0.0 mm 0.00 in0.0 mm 0.00 in0.0 mm
03:28 AM 38.8°F3.8°C 26.1°F-3.3°C 60% 2.7 mph W4.3 kmh W 4.3 mph6.9 kmh 29.99 in1015.6 mb 0.00 in0.0 mm 0.00 in0.0 mm 0.00 in0.0 mm
03:27 AM 38.8°F3.8°C 26.1°F-3.3°C 60% 2.5 mph W4.0 kmh W 4.3 mph6.9 kmh 29.98 in1015.2 mb 0.00 in0.0 mm 0.00 in0.0 mm 0.00 in0.0 mm
03:26 AM 38.7°F3.7°C 26.4°F-3.1°C 61% 1.3 mph W2.1 kmh W 4.3 mph6.9 kmh 29.98 in1015.2 mb 0.00 in0.0 mm 0.00 in0.0 mm 0.00 in0.0 mm
03:25 AM 38.8°F3.8°C 26.6°F-3.0°C 61% 0.2 mph W0.3 kmh W 3.1 mph5.0 kmh 29.99 in1015.6 mb 0.00 in0.0 mm 0.00 in0.0 mm 0.00 in0.0 mm
03:24 AM 39.0°F3.9°C 25.9°F-3.4°C 59% 0.2 mph WSW0.3 kmh WSW 1.1 mph1.8 kmh 29.99 in1015.6 mb 0.00 in0.0 mm 0.00 in0.0 mm 0.00 in0.0 mm
03:23 AM 39.4°F4.1°C 26.2°F-3.2°C 59% 1.6 mph WSW2.6 kmh WSW 1.1 mph1.8 kmh 29.99 in1015.6 mb 0.00 in0.0 mm 0.00 in0.0 mm 0.00 in0.0 mm
03:22 AM 39.4°F4.1°C 26.2°F-3.2°C 59% 2.5 mph WSW4.0 kmh WSW 4.3 mph6.9 kmh 29.99 in1015.6 mb 0.00 in0.0 mm 0.00 in0.0 mm 0.00 in0.0 mm
03:21 AM 39.4°F4.1°C 26.2°F-3.2°C 59% 2.7 mph WSW4.3 kmh WSW 4.3 mph6.9 kmh 29.99 in1015.6 mb 0.00 in0.0 mm 0.00 in0.0 mm 0.00 in0.0 mm
03:20 AM 39.4°F4.1°C 26.2°F-3.2°C 59% 1.8 mph WSW2.9 kmh WSW 3.1 mph5.0 kmh 29.98 in1015.2 mb 0.00 in0.0 mm 0.00 in0.0 mm 0.00 in0.0 mm
03:19 AM 39.4°F4.1°C 26.2°F-3.2°C 59% 0.9 mph WSW1.4 kmh WSW 2.0 mph3.2 kmh 29.99 in1015.6 mb 0.00 in0.0 mm 0.00 in0.0 mm 0.00 in0.0 mm
03:18 AM 39.4°F4.1°C 26.2°F-3.2°C 59% 1.3 mph W2.1 kmh W 2.0 mph3.2 kmh 29.98 in1015.2 mb 0.00 in0.0 mm 0.00 in0.0 mm 0.00 in0.0 mm
03:17 AM 39.4°F4.1°C 26.2°F-3.2°C 59% 2.0 mph W3.2 kmh W 2.0 mph3.2 kmh 29.98 in1015.2 mb 0.00 in0.0 mm 0.00 in0.0 mm 0.00 in0.0 mm
03:16 AM 39.4°F4.1°C 26.2°F-3.2°C 59% 2.5 mph W4.0 kmh W 4.3 mph6.9 kmh 29.98 in1015.2 mb 0.00 in0.0 mm 0.00 in0.0 mm 0.00 in0.0 mm
03:15 AM 39.4°F4.1°C 26.2°F-3.2°C 59% 2.5 mph W4.0 kmh W 4.3 mph6.9 kmh 29.98 in1015.2 mb 0.00 in0.0 mm 0.00 in0.0 mm 0.00 in0.0 mm
03:14 AM 39.6°F4.2°C 26.4°F-3.1°C 59% 2.5 mph WSW4.0 kmh WSW 4.3 mph6.9 kmh 29.99 in1015.6 mb 0.00 in0.0 mm 0.00 in0.0 mm 0.00 in0.0 mm
03:13 AM 39.6°F4.2°C 26.1°F-3.3°C 58% 2.2 mph W3.5 kmh W 4.3 mph6.9 kmh 29.98 in1015.2 mb 0.00 in0.0 mm 0.00 in0.0 mm 0.00 in0.0 mm
03:12 AM 39.6°F4.2°C 26.1°F-3.3°C 58% 1.8 mph WSW2.9 kmh WSW 3.1 mph5.0 kmh 29.98 in1015.2 mb 0.00 in0.0 mm 0.00 in0.0 mm 0.00 in0.0 mm
03:10 AM 39.6°F4.2°C 26.1°F-3.3°C 58% 2.0 mph WSW3.2 kmh WSW 3.1 mph5.0 kmh 29.98 in1015.2 mb 0.00 in0.0 mm 0.00 in0.0 mm 0.00 in0.0 mm
03:09 AM 39.6°F4.2°C 26.4°F-3.1°C 59% 2.7 mph WSW4.3 kmh WSW 3.1 mph5.0 kmh 29.98 in1015.2 mb 0.00 in0.0 mm 0.00 in0.0 mm 0.00 in0.0 mm
03:08 AM 39.6°F4.2°C 26.4°F-3.1°C 59% 2.0 mph WSW3.2 kmh WSW 3.1 mph5.0 kmh 29.98 in1015.2 mb 0.00 in0.0 mm 0.00 in0.0 mm 0.00 in0.0 mm
03:07 AM 39.6°F4.2°C 26.4°F-3.1°C 59% 1.8 mph WSW2.9 kmh WSW 4.3 mph6.9 kmh 29.98 in1015.2 mb 0.00 in0.0 mm 0.00 in0.0 mm 0.00 in0.0 mm
03:06 AM 39.4°F4.1°C 26.2°F-3.2°C 59% 2.2 mph W3.5 kmh W 3.1 mph5.0 kmh 29.98 in1015.2 mb 0.00 in0.0 mm 0.00 in0.0 mm 0.00 in0.0 mm
03:05 AM 39.4°F4.1°C 26.2°F-3.2°C 59% 2.9 mph W4.7 kmh W 5.4 mph8.7 kmh 29.98 in1015.2 mb 0.00 in0.0 mm 0.00 in0.0 mm 0.00 in0.0 mm
03:04 AM 39.2°F4.0°C 26.4°F-3.1°C 60% 3.4 mph W5.5 kmh W 5.4 mph8.7 kmh 29.98 in1015.2 mb 0.00 in0.0 mm 0.00 in0.0 mm 0.00 in0.0 mm
03:03 AM 39.0°F3.9°C 26.2°F-3.2°C 60% 3.4 mph WSW5.5 kmh WSW 5.4 mph8.7 kmh 29.98 in1015.2 mb 0.00 in0.0 mm 0.00 in0.0 mm 0.00 in0.0 mm
03:02 AM 38.8°F3.8°C 26.1°F-3.3°C 60% 2.9 mph WSW4.7 kmh WSW 5.4 mph8.7 kmh 29.98 in1015.2 mb 0.00 in0.0 mm 0.00 in0.0 mm 0.00 in0.0 mm
03:01 AM 38.8°F3.8°C 26.1°F-3.3°C 60% 2.9 mph W4.7 kmh W 5.4 mph8.7 kmh 29.98 in1015.2 mb 0.00 in0.0 mm 0.00 in0.0 mm 0.00 in0.0 mm
03:00 AM 38.7°F3.7°C 26.8°F-2.9°C 62% 3.1 mph W5.0 kmh W 5.4 mph8.7 kmh 29.98 in1015.2 mb 0.00 in0.0 mm 0.00 in0.0 mm 0.00 in0.0 mm
02:59 AM 38.5°F3.6°C 26.6°F-3.0°C 62% 2.7 mph WSW4.3 kmh WSW 5.4 mph8.7 kmh 29.98 in1015.2 mb 0.00 in0.0 mm 0.00 in0.0 mm 0.00 in0.0 mm
02:58 AM 38.5°F3.6°C 27.0°F-2.8°C 63% 2.7 mph WSW4.3 kmh WSW 4.3 mph6.9 kmh 29.98 in1015.2 mb 0.00 in0.0 mm 0.00 in0.0 mm 0.00 in0.0 mm
02:57 AM 38.5°F3.6°C 26.6°F-3.0°C 62% 1.6 mph WSW2.6 kmh WSW 4.3 mph6.9 kmh 29.98 in1015.2 mb 0.00 in0.0 mm 0.00 in0.0 mm 0.00 in0.0 mm
02:56 AM 38.8°F3.8°C 26.6°F-3.0°C 61% 0.4 mph SW0.6 kmh SW 1.1 mph1.8 kmh 29.98 in1015.2 mb 0.00 in0.0 mm 0.00 in0.0 mm 0.00 in0.0 mm
02:55 AM 38.8°F3.8°C 26.1°F-3.3°C 60% 0.4 mph SW0.6 kmh SW 1.1 mph1.8 kmh 29.98 in1015.2 mb 0.00 in0.0 mm 0.00 in0.0 mm 0.00 in0.0 mm
02:54 AM 38.8°F3.8°C 26.6°F-3.0°C 61% 0.7 mph SW1.1 kmh SW 1.1 mph1.8 kmh 29.98 in1015.2 mb 0.00 in0.0 mm 0.00 in0.0 mm 0.00 in0.0 mm
02:53 AM 38.8°F3.8°C 26.6°F-3.0°C 61% 0.9 mph SW1.4 kmh SW 2.0 mph3.2 kmh 29.98 in1015.2 mb 0.00 in0.0 mm 0.00 in0.0 mm 0.00 in0.0 mm
02:52 AM 38.8°F3.8°C 26.6°F-3.0°C 61% 0.9 mph SW1.4 kmh SW 2.0 mph3.2 kmh 29.98 in1015.2 mb 0.00 in0.0 mm 0.00 in0.0 mm 0.00 in0.0 mm
02:51 AM 38.7°F3.7°C 26.4°F-3.1°C 61% 0.9 mph SW1.4 kmh SW 1.1 mph1.8 kmh 29.98 in1015.2 mb 0.00 in0.0 mm 0.00 in0.0 mm 0.00 in0.0 mm
02:50 AM 38.7°F3.7°C 26.8°F-2.9°C 62% 1.1 mph SW1.8 kmh SW 2.0 mph3.2 kmh 29.98 in1015.2 mb 0.00 in0.0 mm 0.00 in0.0 mm 0.00 in0.0 mm
02:49 AM 38.7°F3.7°C 26.4°F-3.1°C 61% 1.1 mph SW1.8 kmh SW 2.0 mph3.2 kmh 29.98 in1015.2 mb 0.00 in0.0 mm 0.00 in0.0 mm 0.00 in0.0 mm
02:48 AM 38.7°F3.7°C 26.4°F-3.1°C 61% 0.7 mph WSW1.1 kmh WSW 1.1 mph1.8 kmh 29.98 in1015.2 mb 0.00 in0.0 mm 0.00 in0.0 mm 0.00 in0.0 mm
02:47 AM 38.7°F3.7°C 26.4°F-3.1°C 61% 0.4 mph WSW0.6 kmh WSW 1.1 mph1.8 kmh 29.98 in1015.2 mb 0.00 in0.0 mm 0.00 in0.0 mm 0.00 in0.0 mm
02:46 AM 38.7°F3.7°C 26.4°F-3.1°C 61% 0.7 mph WSW1.1 kmh WSW 1.1 mph1.8 kmh 29.98 in1015.2 mb 0.00 in0.0 mm 0.00 in0.0 mm 0.00 in0.0 mm
02:45 AM 38.8°F3.8°C 26.6°F-3.0°C 61% 0.7 mph WSW1.1 kmh WSW 1.1 mph1.8 kmh 29.98 in1015.2 mb 0.00 in0.0 mm 0.00 in0.0 mm 0.00 in0.0 mm
02:44 AM 38.8°F3.8°C 26.6°F-3.0°C 61% 0.2 mph WSW0.3 kmh WSW 1.1 mph1.8 kmh 29.98 in1015.2 mb 0.00 in0.0 mm 0.00 in0.0 mm 0.00 in0.0 mm
02:43 AM 38.8°F3.8°C 26.6°F-3.0°C 61% Calm Calm 1.1 mph1.8 kmh 29.98 in1015.2 mb 0.00 in0.0 mm 0.00 in0.0 mm 0.00 in0.0 mm
02:42 AM 39.0°F3.9°C 25.9°F-3.4°C 59% Calm Calm -- 29.98 in1015.2 mb 0.00 in0.0 mm 0.00 in0.0 mm 0.00 in0.0 mm
02:41 AM 39.0°F3.9°C 25.9°F-3.4°C 59% 0.4 mph WSW0.6 kmh WSW 1.1 mph1.8 kmh 29.98 in1015.2 mb 0.00 in0.0 mm 0.00 in0.0 mm 0.00 in0.0 mm
02:40 AM 39.2°F4.0°C 26.1°F-3.3°C 59% 0.4 mph WSW0.6 kmh WSW 2.0 mph3.2 kmh 29.98 in1015.2 mb 0.00 in0.0 mm 0.00 in0.0 mm 0.00 in0.0 mm
02:39 AM 39.6°F4.2°C 26.4°F-3.1°C 59% 0.4 mph WSW0.6 kmh WSW 1.1 mph1.8 kmh 29.98 in1015.2 mb 0.00 in0.0 mm 0.00 in0.0 mm 0.00 in0.0 mm
02:38 AM 39.6°F4.2°C 26.4°F-3.1°C 59% 0.7 mph WSW1.1 kmh WSW 1.1 mph1.8 kmh 29.98 in1015.2 mb 0.00 in0.0 mm 0.00 in0.0 mm 0.00 in0.0 mm
02:37 AM 39.7°F4.3°C 26.6°F-3.0°C 59% 0.9 mph WSW1.4 kmh WSW 1.1 mph1.8 kmh 29.98 in1015.2 mb 0.00 in0.0 mm 0.00 in0.0 mm 0.00 in0.0 mm
02:36 AM 39.7°F4.3°C 26.2°F-3.2°C 58% 0.7 mph WSW1.1 kmh WSW 2.0 mph3.2 kmh 29.98 in1015.2 mb 0.00 in0.0 mm 0.00 in0.0 mm 0.00 in0.0 mm
02:35 AM 39.9°F4.4°C 26.4°F-3.1°C 58% 0.2 mph WSW0.3 kmh WSW 1.1 mph1.8 kmh 29.98 in1015.2 mb 0.00 in0.0 mm 0.00 in0.0 mm 0.00 in0.0 mm
02:34 AM 40.1°F4.5°C 26.1°F-3.3°C 57% 0.7 mph WSW1.1 kmh WSW 1.1 mph1.8 kmh 29.98 in1015.2 mb 0.00 in0.0 mm 0.00 in0.0 mm 0.00 in0.0 mm
02:33 AM 40.3°F4.6°C 25.9°F-3.4°C 56% 1.3 mph WSW2.1 kmh WSW 2.0 mph3.2 kmh 29.98 in1015.2 mb 0.00 in0.0 mm 0.00 in0.0 mm 0.00 in0.0 mm
02:32 AM 40.5°F4.7°C 26.1°F-3.3°C 56% 1.8 mph WSW2.9 kmh WSW 2.0 mph3.2 kmh 29.98 in1015.2 mb 0.00 in0.0 mm 0.00 in0.0 mm 0.00 in0.0 mm
02:31 AM 40.5°F4.7°C 26.1°F-3.3°C 56% 1.6 mph WSW2.6 kmh WSW 3.1 mph5.0 kmh 29.98 in1015.2 mb 0.00 in0.0 mm 0.00 in0.0 mm 0.00 in0.0 mm
02:30 AM 40.5°F4.7°C 26.1°F-3.3°C 56% 2.0 mph WSW3.2 kmh WSW 3.1 mph5.0 kmh 29.98 in1015.2 mb 0.00 in0.0 mm 0.00 in0.0 mm 0.00 in0.0 mm
02:29 AM 40.5°F4.7°C 26.4°F-3.1°C 57% 2.5 mph WSW4.0 kmh WSW 3.1 mph5.0 kmh 29.97 in1014.9 mb 0.00 in0.0 mm 0.00 in0.0 mm 0.00 in0.0 mm
02:28 AM 40.5°F4.7°C 26.1°F-3.3°C 56% 2.0 mph WSW3.2 kmh WSW 3.1 mph5.0 kmh 29.97 in1014.9 mb 0.00 in0.0 mm 0.00 in0.0 mm 0.00 in0.0 mm
02:27 AM 40.5°F4.7°C 26.1°F-3.3°C 56% 1.8 mph W2.9 kmh W 3.1 mph5.0 kmh 29.97 in1014.9 mb 0.00 in0.0 mm 0.00 in0.0 mm 0.00 in0.0 mm
02:26 AM 40.5°F4.7°C 26.1°F-3.3°C 56% 1.6 mph W2.6 kmh W 2.0 mph3.2 kmh 29.98 in1015.2 mb 0.00 in0.0 mm 0.00 in0.0 mm 0.00 in0.0 mm
02:25 AM 40.6°F4.8°C 26.2°F-3.2°C 56% 1.6 mph WSW2.6 kmh WSW 2.0 mph3.2 kmh 29.98 in1015.2 mb 0.00 in0.0 mm 0.00 in0.0 mm 0.00 in0.0 mm
02:24 AM 40.6°F4.8°C 26.2°F-3.2°C 56% 2.0 mph WSW3.2 kmh WSW 3.1 mph5.0 kmh 29.97 in1014.9 mb 0.00 in0.0 mm 0.00 in0.0 mm 0.00 in0.0 mm
02:23 AM 40.6°F4.8°C 26.2°F-3.2°C 56% 2.2 mph WSW3.5 kmh WSW 3.1 mph5.0 kmh 29.97 in1014.9 mb 0.00 in0.0 mm 0.00 in0.0 mm 0.00 in0.0 mm
02:22 AM 40.6°F4.8°C 26.2°F-3.2°C 56% 2.2 mph WSW3.5 kmh WSW 3.1 mph5.0 kmh 29.97 in1014.9 mb 0.00 in0.0 mm 0.00 in0.0 mm 0.00 in0.0 mm
02:21 AM 40.6°F4.8°C 26.2°F-3.2°C 56% 2.0 mph WSW3.2 kmh WSW 3.1 mph5.0 kmh 29.97 in1014.9 mb 0.00 in0.0 mm 0.00 in0.0 mm 0.00 in0.0 mm
02:20 AM 40.6°F4.8°C 26.2°F-3.2°C 56% 1.6 mph WSW2.6 kmh WSW 3.1 mph5.0 kmh 29.97 in1014.9 mb 0.00 in0.0 mm 0.00 in0.0 mm 0.00 in0.0 mm
02:19 AM 40.6°F4.8°C 26.2°F-3.2°C 56% 2.0 mph WSW3.2 kmh WSW 3.1 mph5.0 kmh 29.97 in1014.9 mb 0.00 in0.0 mm 0.00 in0.0 mm 0.00 in0.0 mm
02:18 AM 40.6°F4.8°C 26.2°F-3.2°C 56% 2.2 mph WSW3.5 kmh WSW 3.1 mph5.0 kmh 29.97 in1014.9 mb 0.00 in0.0 mm 0.00 in0.0 mm 0.00 in0.0 mm
02:17 AM 40.6°F4.8°C 26.2°F-3.2°C 56% 2.0 mph WSW3.2 kmh WSW 3.1 mph5.0 kmh 29.97 in1014.9 mb 0.00 in0.0 mm 0.00 in0.0 mm 0.00 in0.0 mm
02:16 AM 40.6°F4.8°C 26.2°F-3.2°C 56% 1.8 mph WSW2.9 kmh WSW 3.1 mph5.0 kmh 29.97 in1014.9 mb 0.00 in0.0 mm 0.00 in0.0 mm 0.00 in0.0 mm
02:15 AM 40.6°F4.8°C 26.2°F-3.2°C 56% 1.8 mph WSW2.9 kmh WSW 2.0 mph3.2 kmh 29.97 in1014.9 mb 0.00 in0.0 mm 0.00 in0.0 mm 0.00 in0.0 mm
02:14 AM 40.6°F4.8°C 26.2°F-3.2°C 56% 2.2 mph WSW3.5 kmh WSW 3.1 mph5.0 kmh 29.97 in1014.9 mb 0.00 in0.0 mm 0.00 in0.0 mm 0.00 in0.0 mm
02:13 AM 40.6°F4.8°C 26.2°F-3.2°C 56% 2.5 mph W4.0 kmh W 4.3 mph6.9 kmh 29.97 in1014.9 mb 0.00 in0.0 mm 0.00 in0.0 mm 0.00 in0.0 mm
02:12 AM 40.5°F4.7°C 26.1°F-3.3°C 56% 2.0 mph WSW3.2 kmh WSW 3.1 mph5.0 kmh 29.97 in1014.9 mb 0.00 in0.0 mm 0.00 in0.0 mm 0.00 in0.0 mm
02:11 AM 40.5°F4.7°C 26.1°F-3.3°C 56% 2.0 mph WSW3.2 kmh WSW 3.1 mph5.0 kmh 29.97 in1014.9 mb 0.00 in0.0 mm 0.00 in0.0 mm 0.00 in0.0 mm
02:10 AM 40.5°F4.7°C 26.1°F-3.3°C 56% 2.0 mph WSW3.2 kmh WSW 3.1 mph5.0 kmh 29.97 in1014.9 mb 0.00 in0.0 mm 0.00 in0.0 mm 0.00 in0.0 mm
02:09 AM 40.5°F4.7°C 26.1°F-3.3°C 56% 2.0 mph WSW3.2 kmh WSW 2.0 mph3.2 kmh 29.97 in1014.9 mb 0.00 in0.0 mm 0.00 in0.0 mm 0.00 in0.0 mm
02:08 AM 40.5°F4.7°C 26.1°F-3.3°C 56% 2.0 mph WSW3.2 kmh WSW 3.1 mph5.0 kmh 29.96 in1014.6 mb 0.00 in0.0 mm 0.00 in0.0 mm 0.00 in0.0 mm
02:07 AM 40.5°F4.7°C 26.1°F-3.3°C 56% 2.2 mph WSW3.5 kmh WSW 3.1 mph5.0 kmh 29.96 in1014.6 mb 0.00 in0.0 mm 0.00 in0.0 mm 0.00 in0.0 mm
02:06 AM 40.6°F4.8°C 26.2°F-3.2°C 56% 2.0 mph SW3.2 kmh SW 3.1 mph5.0 kmh 29.96 in1014.6 mb 0.00 in0.0 mm 0.00 in0.0 mm 0.00 in0.0 mm
02:05 AM 40.8°F4.9°C 25.9°F-3.4°C 55% 1.3 mph SW2.1 kmh SW 2.0 mph3.2 kmh 29.96 in1014.6 mb 0.00 in0.0 mm 0.00 in0.0 mm 0.00 in0.0 mm
02:04 AM 41.2°F5.1°C 26.2°F-3.2°C 55% 0.9 mph SW1.4 kmh SW 2.0 mph3.2 kmh 29.96 in1014.6 mb 0.00 in0.0 mm 0.00 in0.0 mm 0.00 in0.0 mm
02:03 AM 41.4°F5.2°C 25.9°F-3.4°C 54% 0.4 mph SW0.6 kmh SW 2.0 mph3.2 kmh 29.96 in1014.6 mb 0.00 in0.0 mm 0.00 in0.0 mm 0.00 in0.0 mm
02:02 AM 41.7°F5.4°C 25.9°F-3.4°C 53% 0.2 mph SW0.3 kmh SW 1.1 mph1.8 kmh 29.96 in1014.6 mb 0.00 in0.0 mm 0.00 in0.0 mm 0.00 in0.0 mm
02:01 AM 41.7°F5.4°C 25.9°F-3.4°C 53% 0.2 mph SW0.3 kmh SW 1.1 mph1.8 kmh 29.96 in1014.6 mb 0.00 in0.0 mm 0.00 in0.0 mm 0.00 in0.0 mm
02:00 AM 41.9°F5.5°C 26.1°F-3.3°C 53% 0.4 mph SW0.6 kmh SW -- 29.96 in1014.6 mb 0.00 in0.0 mm 0.00 in0.0 mm 0.00 in0.0 mm
01:59 AM 42.1°F5.6°C 25.7°F-3.5°C 52% 1.3 mph SW2.1 kmh SW 2.0 mph3.2 kmh 29.96 in1014.6 mb 0.00 in0.0 mm 0.00 in0.0 mm 0.00 in0.0 mm
01:58 AM 42.1°F5.6°C 25.7°F-3.5°C 52% 1.3 mph SW2.1 kmh SW 2.0 mph3.2 kmh 29.96 in1014.6 mb 0.00 in0.0 mm 0.00 in0.0 mm 0.00 in0.0 mm
01:57 AM 42.1°F5.6°C 26.2°F-3.2°C 53% 1.1 mph SW1.8 kmh SW 2.0 mph3.2 kmh 29.96 in1014.6 mb 0.00 in0.0 mm 0.00 in0.0 mm 0.00 in0.0 mm
01:56 AM 42.1°F5.6°C 26.2°F-3.2°C 53% 1.6 mph SW2.6 kmh SW 2.0 mph3.2 kmh 29.96 in1014.6 mb 0.00 in0.0 mm 0.00 in0.0 mm 0.00 in0.0 mm
01:55 AM 41.9°F5.5°C 26.1°F-3.3°C 53% 2.0 mph SW3.2 kmh SW 3.1 mph5.0 kmh 29.96 in1014.6 mb 0.00 in0.0 mm 0.00 in0.0 mm 0.00 in0.0 mm
01:54 AM 41.7°F5.4°C 25.9°F-3.4°C 53% 2.0 mph SW3.2 kmh SW 3.1 mph5.0 kmh 29.96 in1014.6 mb 0.00 in0.0 mm 0.00 in0.0 mm 0.00 in0.0 mm
01:53 AM 41.7°F5.4°C 25.9°F-3.4°C 53% 1.8 mph W2.9 kmh W 3.1 mph5.0 kmh 29.96 in1014.6 mb 0.00 in0.0 mm 0.00 in0.0 mm 0.00 in0.0 mm
01:52 AM 41.7°F5.4°C 25.9°F-3.4°C 53% 1.3 mph W2.1 kmh W 3.1 mph5.0 kmh 29.96 in1014.6 mb 0.00 in0.0 mm 0.00 in0.0 mm 0.00 in0.0 mm
01:51 AM 41.7°F5.4°C 25.9°F-3.4°C 53% 1.3 mph W2.1 kmh W 2.0 mph3.2 kmh 29.96 in1014.6 mb 0.00 in0.0 mm 0.00 in0.0 mm 0.00 in0.0 mm
01:50 AM 41.7°F5.4°C 25.9°F-3.4°C 53% 2.0 mph W3.2 kmh W 3.1 mph5.0 kmh 29.96 in1014.6 mb 0.00 in0.0 mm 0.00 in0.0 mm 0.00 in0.0 mm
01:49 AM 41.5°F5.3°C 26.1°F-3.3°C 54% 2.7 mph W4.3 kmh W 4.3 mph6.9 kmh 29.96 in1014.6 mb 0.00 in0.0 mm 0.00 in0.0 mm 0.00 in0.0 mm
01:48 AM 41.5°F5.3°C 26.1°F-3.3°C 54% 2.0 mph W3.2 kmh W 3.1 mph5.0 kmh 29.97 in1014.9 mb 0.00 in0.0 mm 0.00 in0.0 mm 0.00 in0.0 mm
01:47 AM 41.5°F5.3°C 26.1°F-3.3°C 54% 1.8 mph WSW2.9 kmh WSW 3.1 mph5.0 kmh 29.97 in1014.9 mb 0.00 in0.0 mm 0.00 in0.0 mm 0.00 in0.0 mm
01:46 AM 41.5°F5.3°C 26.1°F-3.3°C 54% 2.0 mph WSW3.2 kmh WSW 3.1 mph5.0 kmh 29.97 in1014.9 mb 0.00 in0.0 mm 0.00 in0.0 mm 0.00 in0.0 mm
01:45 AM 41.5°F5.3°C 26.1°F-3.3°C 54% 2.7 mph WSW4.3 kmh WSW 3.1 mph5.0 kmh 29.97 in1014.9 mb 0.00 in0.0 mm 0.00 in0.0 mm 0.00 in0.0 mm
01:44 AM 41.5°F5.3°C 26.6°F-3.0°C 55% 2.9 mph WSW4.7 kmh WSW 4.3 mph6.9 kmh 29.96 in1014.6 mb 0.00 in0.0 mm 0.00 in0.0 mm 0.00 in0.0 mm
01:43 AM 41.5°F5.3°C 26.6°F-3.0°C 55% 2.7 mph WSW4.3 kmh WSW 4.3 mph6.9 kmh 29.96 in1014.6 mb 0.00 in0.0 mm 0.00 in0.0 mm 0.00 in0.0 mm
01:42 AM 41.4°F5.2°C 26.4°F-3.1°C 55% 2.5 mph W4.0 kmh W 4.3 mph6.9 kmh 29.97 in1014.9 mb 0.00 in0.0 mm 0.00 in0.0 mm 0.00 in0.0 mm
01:41 AM 41.4°F5.2°C 25.9°F-3.4°C 54% 2.2 mph W3.5 kmh W 4.3 mph6.9 kmh 29.96 in1014.6 mb 0.00 in0.0 mm 0.00 in0.0 mm 0.00 in0.0 mm
01:40 AM 41.4°F5.2°C 26.4°F-3.1°C 55% 2.0 mph WSW3.2 kmh WSW 5.4 mph8.7 kmh 29.96 in1014.6 mb 0.00 in0.0 mm 0.00 in0.0 mm 0.00 in0.0 mm
01:39 AM 41.4°F5.2°C 26.4°F-3.1°C 55% 2.2 mph SW3.5 kmh SW 4.3 mph6.9 kmh 29.96 in1014.6 mb 0.00 in0.0 mm 0.00 in0.0 mm 0.00 in0.0 mm
01:38 AM 41.4°F5.2°C 26.4°F-3.1°C 55% 2.7 mph WSW4.3 kmh WSW 4.3 mph6.9 kmh 29.96 in1014.6 mb 0.00 in0.0 mm 0.00 in0.0 mm 0.00 in0.0 mm
01:37 AM 41.4°F5.2°C 26.4°F-3.1°C 55% 2.5 mph W4.0 kmh W 3.1 mph5.0 kmh 29.96 in1014.6 mb 0.00 in0.0 mm 0.00 in0.0 mm 0.00 in0.0 mm
01:36 AM 41.4°F5.2°C 26.4°F-3.1°C 55% 2.9 mph W4.7 kmh W 4.3 mph6.9 kmh 29.96 in1014.6 mb 0.00 in0.0 mm 0.00 in0.0 mm 0.00 in0.0 mm
01:35 AM 41.4°F5.2°C 26.4°F-3.1°C 55% 3.4 mph W5.5 kmh W 4.3 mph6.9 kmh 29.96 in1014.6 mb 0.00 in0.0 mm 0.00 in0.0 mm 0.00 in0.0 mm
01:34 AM 41.4°F5.2°C 26.4°F-3.1°C 55% 3.4 mph WSW5.5 kmh WSW 5.4 mph8.7 kmh 29.96 in1014.6 mb 0.00 in0.0 mm 0.00 in0.0 mm 0.00 in0.0 mm
01:33 AM 41.4°F5.2°C 26.4°F-3.1°C 55% 3.6 mph WSW5.8 kmh WSW 5.4 mph8.7 kmh 29.96 in1014.6 mb 0.00 in0.0 mm 0.00 in0.0 mm 0.00 in0.0 mm
01:32 AM 41.4°F5.2°C 26.4°F-3.1°C 55% 3.4 mph SW5.5 kmh SW 5.4 mph8.7 kmh 29.96 in1014.6 mb 0.00 in0.0 mm 0.00 in0.0 mm 0.00 in0.0 mm
01:31 AM 41.5°F5.3°C 26.1°F-3.3°C 54% 2.7 mph WSW4.3 kmh WSW 4.3 mph6.9 kmh 29.96 in1014.6 mb 0.00 in0.0 mm 0.00 in0.0 mm 0.00 in0.0 mm
01:30 AM 41.5°F5.3°C 26.1°F-3.3°C 54% 2.0 mph WSW3.2 kmh WSW 4.3 mph6.9 kmh 29.96 in1014.6 mb 0.00 in0.0 mm 0.00 in0.0 mm 0.00 in0.0 mm
01:29 AM 41.7°F5.4°C 26.2°F-3.2°C 54% 1.3 mph WNW2.1 kmh WNW 2.0 mph3.2 kmh 29.96 in1014.6 mb 0.00 in0.0 mm 0.00 in0.0 mm 0.00 in0.0 mm
01:28 AM 41.7°F5.4°C 25.9°F-3.4°C 53% 0.7 mph NW1.1 kmh NW 1.1 mph1.8 kmh 29.96 in1014.6 mb 0.00 in0.0 mm 0.00 in0.0 mm 0.00 in0.0 mm
01:27 AM 41.9°F5.5°C 26.1°F-3.3°C 53% 0.7 mph NW1.1 kmh NW 1.1 mph1.8 kmh 29.96 in1014.6 mb 0.00 in0.0 mm 0.00 in0.0 mm 0.00 in0.0 mm
01:26 AM 42.1°F5.6°C 26.2°F-3.2°C 53% 0.7 mph NW1.1 kmh NW 2.0 mph3.2 kmh 29.96 in1014.6 mb 0.00 in0.0 mm 0.00 in0.0 mm 0.00 in0.0 mm
01:25 AM 42.1°F5.6°C 26.2°F-3.2°C 53% 0.7 mph NW1.1 kmh NW 2.0 mph3.2 kmh 29.96 in1014.6 mb 0.00 in0.0 mm 0.00 in0.0 mm 0.00 in0.0 mm
01:24 AM 42.3°F5.7°C 25.9°F-3.4°C 52% 0.7 mph NW1.1 kmh NW 1.1 mph1.8 kmh 29.96 in1014.6 mb 0.00 in0.0 mm 0.00 in0.0 mm 0.00 in0.0 mm
01:23 AM 42.4°F5.8°C 26.1°F-3.3°C 52% 0.9 mph NW1.4 kmh NW 1.1 mph1.8 kmh 29.96 in1014.6 mb 0.00 in0.0 mm 0.00 in0.0 mm 0.00 in0.0 mm
01:22 AM 42.6°F5.9°C 26.2°F-3.2°C 52% 0.9 mph NNW1.4 kmh NNW 1.1 mph1.8 kmh 29.96 in1014.6 mb 0.00 in0.0 mm 0.00 in0.0 mm 0.00 in0.0 mm
01:21 AM 43.0°F6.1°C 26.6°F-3.0°C 52% 0.7 mph NNW1.1 kmh NNW 2.0 mph3.2 kmh 29.96 in1014.6 mb 0.00 in0.0 mm 0.00 in0.0 mm 0.00 in0.0 mm
01:20 AM 43.0°F6.1°C 26.6°F-3.0°C 52% 0.7 mph NNW1.1 kmh NNW 2.0 mph3.2 kmh 29.96 in1014.6 mb 0.00 in0.0 mm 0.00 in0.0 mm 0.00 in0.0 mm
01:19 AM 43.0°F6.1°C 26.6°F-3.0°C 52% 0.7 mph NNW1.1 kmh NNW 1.1 mph1.8 kmh 29.95 in1014.2 mb 0.00 in0.0 mm 0.00 in0.0 mm 0.00 in0.0 mm
01:18 AM 43.0°F6.1°C 26.6°F-3.0°C 52% 0.9 mph NNW1.4 kmh NNW 1.1 mph1.8 kmh 29.95 in1014.2 mb 0.00 in0.0 mm 0.00 in0.0 mm 0.00 in0.0 mm
01:17 AM 43.0°F6.1°C 26.6°F-3.0°C 52% 1.1 mph NNW1.8 kmh NNW 1.1 mph1.8 kmh 29.95 in1014.2 mb 0.00 in0.0 mm 0.00 in0.0 mm 0.00 in0.0 mm
01:16 AM 43.2°F6.2°C 26.2°F-3.2°C 51% 1.1 mph NNW1.8 kmh NNW 2.0 mph3.2 kmh 29.95 in1014.2 mb 0.00 in0.0 mm 0.00 in0.0 mm 0.00 in0.0 mm
01:15 AM 43.2°F6.2°C 26.2°F-3.2°C 51% 1.3 mph NNW2.1 kmh NNW 2.0 mph3.2 kmh 29.95 in1014.2 mb 0.00 in0.0 mm 0.00 in0.0 mm 0.00 in0.0 mm
01:14 AM 43.3°F6.3°C 26.4°F-3.1°C 51% 1.3 mph NNW2.1 kmh NNW 2.0 mph3.2 kmh 29.95 in1014.2 mb 0.00 in0.0 mm 0.00 in0.0 mm 0.00 in0.0 mm
01:13 AM 43.3°F6.3°C 26.4°F-3.1°C 51% 1.1 mph NNW1.8 kmh NNW 1.1 mph1.8 kmh 29.95 in1014.2 mb 0.00 in0.0 mm 0.00 in0.0 mm 0.00 in0.0 mm
01:12 AM 43.3°F6.3°C 26.4°F-3.1°C 51% 1.3 mph NNW2.1 kmh NNW 2.0 mph3.2 kmh 29.95 in1014.2 mb 0.00 in0.0 mm 0.00 in0.0 mm 0.00 in0.0 mm
01:11 AM 43.3°F6.3°C 26.4°F-3.1°C 51% 1.6 mph NNW2.6 kmh NNW 2.0 mph3.2 kmh 29.95 in1014.2 mb 0.00 in0.0 mm 0.00 in0.0 mm 0.00 in0.0 mm
01:10 AM 43.5°F6.4°C 26.6°F-3.0°C 51% 1.6 mph NNW2.6 kmh NNW 2.0 mph3.2 kmh 29.95 in1014.2 mb 0.00 in0.0 mm 0.00 in0.0 mm 0.00 in0.0 mm
01:09 AM 43.5°F6.4°C 26.6°F-3.0°C 51% 1.8 mph NNW2.9 kmh NNW 3.1 mph5.0 kmh 29.95 in1014.2 mb 0.00 in0.0 mm 0.00 in0.0 mm 0.00 in0.0 mm
01:08 AM 43.5°F6.4°C 26.6°F-3.0°C 51% 1.6 mph NNW2.6 kmh NNW 3.1 mph5.0 kmh 29.95 in1014.2 mb 0.00 in0.0 mm 0.00 in0.0 mm 0.00 in0.0 mm
01:07 AM 43.5°F6.4°C 26.6°F-3.0°C 51% 1.3 mph NNW2.1 kmh NNW 3.1 mph5.0 kmh 29.95 in1014.2 mb 0.00 in0.0 mm 0.00 in0.0 mm 0.00 in0.0 mm
01:06 AM 43.5°F6.4°C 26.1°F-3.3°C 50% 1.6 mph NNW2.6 kmh NNW 2.0 mph3.2 kmh 29.95 in1014.2 mb 0.00 in0.0 mm 0.00 in0.0 mm 0.00 in0.0 mm
01:05 AM 43.5°F6.4°C 26.1°F-3.3°C 50% 2.0 mph NNW3.2 kmh NNW 3.1 mph5.0 kmh 29.95 in1014.2 mb 0.00 in0.0 mm 0.00 in0.0 mm 0.00 in0.0 mm
01:04 AM 43.5°F6.4°C 26.1°F-3.3°C 50% 2.0 mph NNW3.2 kmh NNW 3.1 mph5.0 kmh 29.95 in1014.2 mb 0.00 in0.0 mm 0.00 in0.0 mm 0.00 in0.0 mm
01:03 AM 43.5°F6.4°C 26.1°F-3.3°C 50% 2.0 mph NW3.2 kmh NW 3.1 mph5.0 kmh 29.95 in1014.2 mb 0.00 in0.0 mm 0.00 in0.0 mm 0.00 in0.0 mm
01:02 AM 43.5°F6.4°C 26.1°F-3.3°C 50% 2.0 mph WNW3.2 kmh WNW 3.1 mph5.0 kmh 29.95 in1014.2 mb 0.00 in0.0 mm 0.00 in0.0 mm 0.00 in0.0 mm
01:01 AM 43.7°F6.5°C 26.2°F-3.2°C 50% 2.0 mph NW3.2 kmh NW 3.1 mph5.0 kmh 29.95 in1014.2 mb 0.00 in0.0 mm 0.00 in0.0 mm 0.00 in0.0 mm
01:00 AM 43.7°F6.5°C 26.2°F-3.2°C 50% 2.2 mph NW3.5 kmh NW 3.1 mph5.0 kmh 29.95 in1014.2 mb 0.00 in0.0 mm 0.00 in0.0 mm 0.00 in0.0 mm
12:59 AM 43.7°F6.5°C 26.2°F-3.2°C 50% 1.8 mph NNW2.9 kmh NNW 3.1 mph5.0 kmh 29.95 in1014.2 mb 0.00 in0.0 mm 0.00 in0.0 mm 0.00 in0.0 mm
12:58 AM 43.7°F6.5°C 26.2°F-3.2°C 50% 1.6 mph NNW2.6 kmh NNW 2.0 mph3.2 kmh 29.95 in1014.2 mb 0.00 in0.0 mm 0.00 in0.0 mm 0.00 in0.0 mm
12:57 AM 43.7°F6.5°C 26.2°F-3.2°C 50% 1.6 mph NNW2.6 kmh NNW 2.0 mph3.2 kmh 29.95 in1014.2 mb 0.00 in0.0 mm 0.00 in0.0 mm 0.00 in0.0 mm
12:56 AM 43.7°F6.5°C 26.2°F-3.2°C 50% 2.0 mph NNW3.2 kmh NNW 2.0 mph3.2 kmh 29.95 in1014.2 mb 0.00 in0.0 mm 0.00 in0.0 mm 0.00 in0.0 mm
12:55 AM 43.9°F6.6°C 26.4°F-3.1°C 50% 2.0 mph NNW3.2 kmh NNW 3.1 mph5.0 kmh 29.95 in1014.2 mb 0.00 in0.0 mm 0.00 in0.0 mm 0.00 in0.0 mm
12:54 AM 43.9°F6.6°C 26.4°F-3.1°C 50% 1.8 mph NNW2.9 kmh NNW 2.0 mph3.2 kmh 29.95 in1014.2 mb 0.00 in0.0 mm 0.00 in0.0 mm 0.00 in0.0 mm
12:53 AM 43.9°F6.6°C 26.4°F-3.1°C 50% 1.6 mph NNW2.6 kmh NNW 2.0 mph3.2 kmh 29.95 in1014.2 mb 0.00 in0.0 mm 0.00 in0.0 mm 0.00 in0.0 mm
12:52 AM 44.1°F6.7°C 26.6°F-3.0°C 50% 1.6 mph NNW2.6 kmh NNW 2.0 mph3.2 kmh 29.94 in1013.9 mb 0.00 in0.0 mm 0.00 in0.0 mm 0.00 in0.0 mm
12:51 AM 44.1°F6.7°C 26.6°F-3.0°C 50% 1.6 mph NNW2.6 kmh NNW 2.0 mph3.2 kmh 29.95 in1014.2 mb 0.00 in0.0 mm 0.00 in0.0 mm 0.00 in0.0 mm
12:50 AM 44.1°F6.7°C 26.6°F-3.0°C 50% 2.7 mph NNW4.3 kmh NNW 3.1 mph5.0 kmh 29.94 in1013.9 mb 0.00 in0.0 mm 0.00 in0.0 mm 0.00 in0.0 mm
12:49 AM 44.1°F6.7°C 26.6°F-3.0°C 50% 3.1 mph NNW5.0 kmh NNW 5.4 mph8.7 kmh 29.94 in1013.9 mb 0.00 in0.0 mm 0.00 in0.0 mm 0.00 in0.0 mm
12:48 AM 44.1°F6.7°C 26.1°F-3.3°C 49% 3.1 mph NNW5.0 kmh NNW 6.3 mph10.1 kmh 29.94 in1013.9 mb 0.00 in0.0 mm 0.00 in0.0 mm 0.00 in0.0 mm
12:47 AM 44.1°F6.7°C 26.1°F-3.3°C 49% 2.9 mph NW4.7 kmh NW 6.3 mph10.1 kmh 29.94 in1013.9 mb 0.00 in0.0 mm 0.00 in0.0 mm 0.00 in0.0 mm
12:46 AM 44.1°F6.7°C 26.6°F-3.0°C 50% 2.2 mph NW3.5 kmh NW 3.1 mph5.0 kmh 29.94 in1013.9 mb 0.00 in0.0 mm 0.00 in0.0 mm 0.00 in0.0 mm
12:45 AM 44.1°F6.7°C 26.6°F-3.0°C 50% 2.7 mph WNW4.3 kmh WNW 4.3 mph6.9 kmh 29.94 in1013.9 mb 0.00 in0.0 mm 0.00 in0.0 mm 0.00 in0.0 mm
12:44 AM 43.9°F6.6°C 26.4°F-3.1°C 50% 2.9 mph W4.7 kmh W 6.3 mph10.1 kmh 29.94 in1013.9 mb 0.00 in0.0 mm 0.00 in0.0 mm 0.00 in0.0 mm
12:43 AM 43.9°F6.6°C 26.4°F-3.1°C 50% 3.4 mph W5.5 kmh W 6.3 mph10.1 kmh 29.94 in1013.9 mb 0.00 in0.0 mm 0.00 in0.0 mm 0.00 in0.0 mm
12:42 AM 43.9°F6.6°C 26.4°F-3.1°C 50% 3.1 mph WNW5.0 kmh WNW 5.4 mph8.7 kmh 29.94 in1013.9 mb 0.00 in0.0 mm 0.00 in0.0 mm 0.00 in0.0 mm
12:41 AM 43.9°F6.6°C 26.4°F-3.1°C 50% 2.9 mph NNW4.7 kmh NNW 5.4 mph8.7 kmh 29.94 in1013.9 mb 0.00 in0.0 mm 0.00 in0.0 mm 0.00 in0.0 mm
12:40 AM 43.9°F6.6°C 26.4°F-3.1°C 50% 1.8 mph W2.9 kmh W 4.3 mph6.9 kmh 29.94 in1013.9 mb 0.00 in0.0 mm 0.00 in0.0 mm 0.00 in0.0 mm
12:38 AM 43.9°F6.6°C 26.4°F-3.1°C 50% 1.6 mph NNW2.6 kmh NNW 2.0 mph3.2 kmh 29.94 in1013.9 mb 0.00 in0.0 mm 0.00 in0.0 mm 0.00 in0.0 mm
12:37 AM 43.9°F6.6°C 26.4°F-3.1°C 50% 2.0 mph NNW3.2 kmh NNW 3.1 mph5.0 kmh 29.94 in1013.9 mb 0.00 in0.0 mm 0.00 in0.0 mm 0.00 in0.0 mm
12:36 AM 43.9°F6.6°C 26.4°F-3.1°C 50% 2.0 mph NNW3.2 kmh NNW 4.3 mph6.9 kmh 29.94 in1013.9 mb 0.00 in0.0 mm 0.00 in0.0 mm 0.00 in0.0 mm
12:35 AM 43.9°F6.6°C 26.4°F-3.1°C 50% 2.0 mph NNW3.2 kmh NNW 4.3 mph6.9 kmh 29.94 in1013.9 mb 0.00 in0.0 mm 0.00 in0.0 mm 0.00 in0.0 mm
12:34 AM 43.9°F6.6°C 26.4°F-3.1°C 50% 1.8 mph NW2.9 kmh NW 3.1 mph5.0 kmh 29.93 in1013.5 mb 0.00 in0.0 mm 0.00 in0.0 mm 0.00 in0.0 mm
12:33 AM 43.9°F6.6°C 26.4°F-3.1°C 50% 1.6 mph NW2.6 kmh NW 2.0 mph3.2 kmh 29.94 in1013.9 mb 0.00 in0.0 mm 0.00 in0.0 mm 0.00 in0.0 mm
12:32 AM 43.9°F6.6°C 26.4°F-3.1°C 50% 1.8 mph WNW2.9 kmh WNW 3.1 mph5.0 kmh 29.94 in1013.9 mb 0.00 in0.0 mm 0.00 in0.0 mm 0.00 in0.0 mm
12:31 AM 43.9°F6.6°C 26.4°F-3.1°C 50% 1.8 mph WNW2.9 kmh WNW 4.3 mph6.9 kmh 29.94 in1013.9 mb 0.00 in0.0 mm 0.00 in0.0 mm 0.00 in0.0 mm
12:30 AM 43.9°F6.6°C 26.4°F-3.1°C 50% 2.0 mph NW3.2 kmh NW 2.0 mph3.2 kmh 29.94 in1013.9 mb 0.00 in0.0 mm 0.00 in0.0 mm 0.00 in0.0 mm
12:29 AM 43.9°F6.6°C 26.4°F-3.1°C 50% 2.2 mph NW3.5 kmh NW 3.1 mph5.0 kmh 29.94 in1013.9 mb 0.00 in0.0 mm 0.00 in0.0 mm 0.00 in0.0 mm
12:28 AM 43.9°F6.6°C 26.4°F-3.1°C 50% 2.5 mph NW4.0 kmh NW 4.3 mph6.9 kmh 29.94 in1013.9 mb 0.00 in0.0 mm 0.00 in0.0 mm 0.00 in0.0 mm
12:27 AM 43.9°F6.6°C 26.4°F-3.1°C 50% 2.0 mph NNW3.2 kmh NNW 3.1 mph5.0 kmh 29.94 in1013.9 mb 0.00 in0.0 mm 0.00 in0.0 mm 0.00 in0.0 mm
12:26 AM 43.9°F6.6°C 26.4°F-3.1°C 50% 1.8 mph NW2.9 kmh NW 2.0 mph3.2 kmh 29.93 in1013.5 mb 0.00 in0.0 mm 0.00 in0.0 mm 0.00 in0.0 mm
12:25 AM 43.9°F6.6°C 26.4°F-3.1°C 50% 2.0 mph NW3.2 kmh NW 2.0 mph3.2 kmh 29.93 in1013.5 mb 0.00 in0.0 mm 0.00 in0.0 mm 0.00 in0.0 mm
12:24 AM 43.9°F6.6°C 26.4°F-3.1°C 50% 2.0 mph NW3.2 kmh NW 3.1 mph5.0 kmh 29.93 in1013.5 mb 0.00 in0.0 mm 0.00 in0.0 mm 0.00 in0.0 mm
12:23 AM 43.9°F6.6°C 26.4°F-3.1°C 50% 2.2 mph NW3.5 kmh NW 2.0 mph3.2 kmh 29.93 in1013.5 mb 0.00 in0.0 mm 0.00 in0.0 mm 0.00 in0.0 mm
12:22 AM 43.9°F6.6°C 26.4°F-3.1°C 50% 2.7 mph NW4.3 kmh NW 4.3 mph6.9 kmh 29.93 in1013.5 mb 0.00 in0.0 mm 0.00 in0.0 mm 0.00 in0.0 mm
12:21 AM 43.9°F6.6°C 26.4°F-3.1°C 50% 2.5 mph WNW4.0 kmh WNW 4.3 mph6.9 kmh 29.93 in1013.5 mb 0.00 in0.0 mm 0.00 in0.0 mm 0.00 in0.0 mm
12:20 AM 43.7°F6.5°C 26.2°F-3.2°C 50% 2.0 mph NW3.2 kmh NW 3.1 mph5.0 kmh 29.93 in1013.5 mb 0.00 in0.0 mm 0.00 in0.0 mm 0.00 in0.0 mm
12:19 AM 43.5°F6.4°C 26.1°F-3.3°C 50% 1.8 mph NW2.9 kmh NW 4.3 mph6.9 kmh 29.93 in1013.5 mb 0.00 in0.0 mm 0.00 in0.0 mm 0.00 in0.0 mm
12:18 AM 43.5°F6.4°C 26.1°F-3.3°C 50% 1.3 mph WSW2.1 kmh WSW 2.0 mph3.2 kmh 29.93 in1013.5 mb 0.00 in0.0 mm 0.00 in0.0 mm 0.00 in0.0 mm
12:17 AM 43.5°F6.4°C 26.1°F-3.3°C 50% 1.1 mph WSW1.8 kmh WSW 2.0 mph3.2 kmh 29.93 in1013.5 mb 0.00 in0.0 mm 0.00 in0.0 mm 0.00 in0.0 mm
12:16 AM 43.5°F6.4°C 26.1°F-3.3°C 50% 0.9 mph WSW1.4 kmh WSW 2.0 mph3.2 kmh 29.93 in1013.5 mb 0.00 in0.0 mm 0.00 in0.0 mm 0.00 in0.0 mm
12:15 AM 43.9°F6.6°C 26.4°F-3.1°C 50% 1.6 mph WSW2.6 kmh WSW 2.0 mph3.2 kmh 29.93 in1013.5 mb 0.00 in0.0 mm 0.00 in0.0 mm 0.00 in0.0 mm
12:14 AM 43.9°F6.6°C 26.4°F-3.1°C 50% 2.0 mph WSW3.2 kmh WSW 3.1 mph5.0 kmh 29.93 in1013.5 mb 0.00 in0.0 mm 0.00 in0.0 mm 0.00 in0.0 mm
12:13 AM 43.7°F6.5°C 26.2°F-3.2°C 50% 1.8 mph W2.9 kmh W 3.1 mph5.0 kmh 29.93 in1013.5 mb 0.00 in0.0 mm 0.00 in0.0 mm 0.00 in0.0 mm
12:12 AM 43.7°F6.5°C 26.2°F-3.2°C 50% 1.8 mph W2.9 kmh W 3.1 mph5.0 kmh 29.93 in1013.5 mb 0.00 in0.0 mm 0.00 in0.0 mm 0.00 in0.0 mm
12:11 AM 43.7°F6.5°C 26.2°F-3.2°C 50% 2.0 mph W3.2 kmh W 3.1 mph5.0 kmh 29.93 in1013.5 mb 0.00 in0.0 mm 0.00 in0.0 mm 0.00 in0.0 mm
12:10 AM 43.7°F6.5°C 26.2°F-3.2°C 50% 1.6 mph W2.6 kmh W 3.1 mph5.0 kmh 29.93 in1013.5 mb 0.00 in0.0 mm 0.00 in0.0 mm 0.00 in0.0 mm
12:09 AM 43.9°F6.6°C 25.9°F-3.4°C 49% 1.3 mph WSW2.1 kmh WSW 2.0 mph3.2 kmh 29.93 in1013.5 mb 0.00 in0.0 mm 0.00 in0.0 mm 0.00 in0.0 mm
12:08 AM 43.9°F6.6°C 25.9°F-3.4°C 49% 2.0 mph WSW3.2 kmh WSW 2.0 mph3.2 kmh 29.93 in1013.5 mb 0.00 in0.0 mm 0.00 in0.0 mm 0.00 in0.0 mm
12:07 AM 43.9°F6.6°C 26.4°F-3.1°C 50% 2.2 mph WSW3.5 kmh WSW 4.3 mph6.9 kmh 29.93 in1013.5 mb 0.00 in0.0 mm 0.00 in0.0 mm 0.00 in0.0 mm
12:06 AM 44.1°F6.7°C 26.6°F-3.0°C 50% 1.3 mph WSW2.1 kmh WSW 4.3 mph6.9 kmh 29.93 in1013.5 mb 0.00 in0.0 mm 0.00 in0.0 mm 0.00 in0.0 mm
12:05 AM 44.2°F6.8°C 26.2°F-3.2°C 49% 0.7 mph W1.1 kmh W 1.1 mph1.8 kmh 29.93 in1013.5 mb 0.00 in0.0 mm 0.00 in0.0 mm 0.00 in0.0 mm
12:04 AM 44.4°F6.9°C 26.4°F-3.1°C 49% 0.9 mph W1.4 kmh W 1.1 mph1.8 kmh 29.93 in1013.5 mb 0.00 in0.0 mm 0.00 in0.0 mm 0.00 in0.0 mm
12:03 AM 44.6°F7.0°C 26.1°F-3.3°C 48% 1.6 mph W2.6 kmh W 3.1 mph5.0 kmh 29.93 in1013.5 mb 0.00 in0.0 mm 0.00 in0.0 mm 0.00 in0.0 mm
12:02 AM 44.4°F6.9°C 25.9°F-3.4°C 48% 2.9 mph W4.7 kmh W 3.1 mph5.0 kmh 29.93 in1013.5 mb 0.00 in0.0 mm 0.00 in0.0 mm 0.00 in0.0 mm
12:01 AM 44.4°F6.9°C 26.4°F-3.1°C 49% 3.1 mph WNW5.0 kmh WNW 6.3 mph10.1 kmh 29.93 in1013.5 mb 0.00 in0.0 mm 0.00 in0.0 mm 0.00 in0.0 mm
12:00 AM 44.2°F6.8°C 26.2°F-3.2°C 49% 2.2 mph WNW3.5 kmh WNW 4.3 mph6.9 kmh 29.93 in1013.5 mb 0.00 in0.0 mm 0.00 in0.0 mm 0.00 in0.0 mm